createdAt,value
2023-02-03T00:03:24.053Z,4.80
2023-02-03T00:08:25.945Z,4.80
2023-02-03T00:13:27.730Z,4.70
2023-02-03T00:18:29.494Z,4.70
2023-02-03T00:23:32.132Z,4.70
2023-02-03T00:28:34.072Z,4.80
2023-02-03T00:33:35.874Z,4.80
2023-02-03T00:38:37.609Z,4.80
2023-02-03T00:43:39.379Z,4.80
2023-02-03T00:48:41.432Z,4.80
2023-02-03T00:53:43.244Z,4.90
2023-02-03T00:58:45.107Z,4.90
2023-02-03T01:03:47.008Z,4.80
2023-02-03T01:08:49.821Z,4.80
2023-02-03T01:13:53.304Z,4.80
2023-02-03T01:18:55.577Z,4.80
2023-02-03T01:23:59.590Z,4.80
2023-02-03T01:29:01.869Z,4.80
2023-02-03T01:34:04.061Z,4.80
2023-02-03T01:39:06.566Z,4.90
2023-02-03T01:44:33.312Z,4.80
2023-02-03T01:49:37.072Z,4.80
2023-02-03T01:54:43.613Z,4.90
2023-02-03T01:59:46.260Z,4.90
2023-02-03T02:05:01.444Z,4.90
2023-02-03T02:10:04.664Z,4.90
2023-02-03T02:15:07.006Z,5.00
2023-02-03T02:20:27.873Z,5.00
2023-02-03T02:26:04.120Z,5.10
2023-02-03T02:31:34.001Z,5.10
2023-02-03T02:36:46.371Z,5.10
2023-02-03T02:42:01.271Z,5.20
2023-02-03T02:47:09.543Z,5.20
2023-02-03T02:52:14.093Z,5.30
2023-02-03T02:57:17.909Z,5.40
2023-02-03T03:02:19.776Z,5.50
2023-02-03T03:07:27.632Z,5.60
2023-02-03T03:12:34.403Z,5.70
2023-02-03T03:17:44.448Z,5.80
2023-02-03T03:22:50.968Z,5.90
2023-02-03T03:28:01.814Z,6.10
2023-02-03T03:33:06.258Z,6.20
2023-02-03T03:38:17.190Z,6.30
2023-02-03T03:43:28.160Z,6.30
2023-02-03T03:48:47.963Z,6.40
2023-02-03T03:53:52.025Z,6.40
2023-02-03T03:58:55.025Z,6.50
2023-02-03T04:04:01.013Z,6.50
2023-02-03T04:09:03.134Z,6.60
2023-02-03T04:14:05.092Z,6.60
2023-02-03T04:19:08.534Z,6.80
2023-02-03T04:24:10.444Z,6.70
2023-02-03T04:29:12.249Z,6.80
2023-02-03T04:34:13.989Z,6.90
2023-02-03T04:39:15.792Z,7.00
2023-02-03T04:44:17.483Z,7.10
2023-02-03T04:49:19.262Z,7.20
2023-02-03T04:54:21.013Z,7.20
2023-02-03T04:59:22.860Z,7.20
2023-02-03T05:04:24.960Z,7.30
2023-02-03T05:09:27.269Z,7.40
2023-02-03T05:14:29.011Z,7.40
2023-02-03T05:19:30.754Z,7.40
2023-02-03T05:24:32.493Z,7.50
2023-02-03T05:29:34.256Z,7.50
2023-02-03T05:34:36.004Z,7.60
2023-02-03T05:39:37.763Z,7.60
2023-02-03T05:44:39.513Z,7.60
2023-02-03T05:49:41.344Z,7.60
2023-02-03T05:54:43.754Z,7.70
2023-02-03T05:59:45.471Z,7.70
2023-02-03T06:04:47.305Z,7.70
2023-02-03T06:09:49.326Z,7.70
2023-02-03T06:14:51.103Z,7.80
2023-02-03T06:19:53.119Z,7.80
2023-02-03T06:24:55.111Z,7.80
2023-02-03T06:29:57.064Z,7.90
2023-02-03T06:34:58.867Z,7.80
2023-02-03T06:40:00.679Z,7.80
2023-02-03T06:45:02.424Z,7.90
2023-02-03T06:50:04.350Z,7.90
2023-02-03T06:55:07.111Z,8.00
2023-02-03T07:00:10.246Z,8.00
2023-02-03T07:05:12.795Z,8.00
2023-02-03T07:10:14.593Z,8.10
2023-02-03T07:15:17.001Z,8.10
2023-02-03T07:20:18.814Z,8.20
2023-02-03T07:25:20.718Z,8.10
2023-02-03T07:30:22.620Z,8.20
2023-02-03T07:35:24.374Z,8.20
2023-02-03T07:40:26.405Z,8.30
2023-02-03T07:45:28.703Z,8.30
2023-02-03T07:50:30.702Z,8.40
2023-02-03T07:55:32.847Z,8.40
2023-02-03T08:00:35.403Z,8.50
2023-02-03T08:05:37.186Z,8.50
2023-02-03T08:10:39.241Z,8.60
2023-02-03T08:15:41.094Z,8.60
2023-02-03T08:20:42.974Z,8.60
2023-02-03T08:25:44.809Z,8.60
2023-02-03T08:30:46.862Z,8.60
2023-02-03T08:35:49.802Z,8.70
2023-02-03T08:40:51.609Z,8.70
2023-02-03T08:45:53.556Z,8.70
2023-02-03T08:50:55.301Z,8.80
2023-02-03T08:55:57.180Z,8.80
2023-02-03T09:01:10.254Z,8.80
2023-02-03T09:06:16.576Z,8.90
2023-02-03T09:11:18.996Z,8.90
2023-02-03T09:16:21.686Z,9.00
2023-02-03T09:21:33.585Z,9.00
2023-02-03T09:26:41.349Z,9.10
2023-02-03T09:31:44.020Z,9.10
2023-02-03T09:36:46.219Z,9.10
2023-02-03T09:42:09.966Z,9.10
2023-02-03T09:47:35.427Z,9.20
2023-02-03T09:52:41.890Z,9.10
2023-02-03T09:57:51.574Z,9.10
2023-02-03T10:02:59.685Z,9.20
2023-02-03T10:08:13.589Z,9.10
2023-02-03T10:13:33.003Z,9.10
2023-02-03T10:18:45.483Z,9.10
2023-02-03T10:23:49.395Z,9.10
2023-02-03T10:28:56.830Z,9.20
2023-02-03T10:34:15.761Z,9.20
2023-02-03T10:39:27.816Z,9.20
2023-02-03T10:44:38.599Z,9.20
2023-02-03T10:49:42.551Z,9.10
2023-02-03T10:54:45.095Z,9.10
2023-02-03T10:59:48.827Z,9.10
2023-02-03T11:05:10.006Z,9.10
2023-02-03T11:10:35.836Z,9.10
2023-02-03T11:15:38.017Z,9.10
2023-02-03T11:20:39.939Z,9.10
2023-02-03T11:25:42.063Z,9.00
2023-02-03T11:30:44.173Z,8.90
2023-02-03T11:35:56.875Z,8.90
2023-02-03T11:41:01.258Z,8.80
2023-02-03T11:46:09.884Z,8.70
2023-02-03T11:51:50.779Z,8.80
2023-02-03T11:57:16.968Z,8.60
2023-02-03T12:02:45.900Z,8.60
2023-02-03T12:08:13.298Z,8.80
2023-02-03T12:13:39.323Z,8.90
2023-02-03T12:19:12.368Z,9.00
2023-02-03T12:24:37.623Z,9.00
2023-02-03T12:29:51.441Z,8.90
2023-02-03T12:35:19.556Z,9.10
2023-02-03T12:40:36.666Z,9.00
2023-02-03T12:45:40.254Z,9.00
2023-02-03T12:50:52.050Z,9.10
2023-02-03T12:56:04.178Z,9.20
2023-02-03T13:01:18.043Z,9.20
2023-02-03T13:06:25.565Z,9.30
2023-02-03T13:11:36.463Z,9.40
2023-02-03T13:16:43.641Z,9.40
2023-02-03T13:21:47.858Z,9.30
2023-02-03T13:27:24.924Z,9.10
2023-02-03T13:32:59.774Z,9.10
2023-02-03T13:38:36.914Z,9.00
2023-02-03T13:43:45.145Z,9.10
2023-02-03T13:48:47.400Z,9.10
2023-02-03T13:53:51.325Z,9.00
2023-02-03T13:59:28.657Z,9.10
2023-02-03T14:04:32.002Z,8.80
2023-02-03T14:09:35.647Z,8.10
2023-02-03T14:14:37.341Z,6.60
2023-02-03T14:19:51.099Z,6.20
2023-02-03T14:24:56.593Z,6.30
2023-02-03T14:30:07.237Z,6.40
2023-02-03T14:35:21.674Z,6.30
2023-02-03T14:40:32.404Z,6.30
2023-02-03T14:45:47.346Z,6.30
2023-02-03T14:51:11.714Z,6.30
2023-02-03T14:56:51.708Z,6.40
2023-02-03T15:01:53.852Z,6.50
2023-02-03T15:06:55.761Z,6.60
2023-02-03T15:11:57.848Z,6.60
2023-02-03T15:17:11.772Z,6.70
2023-02-03T15:22:25.106Z,6.80
2023-02-03T15:27:29.715Z,6.90
2023-02-03T15:32:42.856Z,7.20
2023-02-03T15:38:02.356Z,7.40
2023-02-03T15:43:16.058Z,7.40
2023-02-03T15:48:30.072Z,7.40
2023-02-03T15:53:47.263Z,7.40
2023-02-03T15:58:50.592Z,7.70
2023-02-03T16:03:57.279Z,7.90
2023-02-03T16:08:59.678Z,7.80
2023-02-03T16:14:07.564Z,8.00
2023-02-03T16:19:22.462Z,7.80
2023-02-03T16:24:33.356Z,8.00
2023-02-03T16:29:56.931Z,7.90
2023-02-03T16:35:17.471Z,7.90
2023-02-03T16:40:42.346Z,7.90
2023-02-03T16:46:02.525Z,8.00
2023-02-03T16:51:12.250Z,8.10
2023-02-03T16:56:14.277Z,8.00
2023-02-03T17:01:16.351Z,7.90
2023-02-03T17:06:18.250Z,8.00
2023-02-03T17:11:23.345Z,8.00
2023-02-03T17:16:26.605Z,8.00
2023-02-03T17:21:29.807Z,8.10
2023-02-03T17:26:31.617Z,8.00
2023-02-03T17:31:33.438Z,8.10
2023-02-03T17:36:35.262Z,8.20
2023-02-03T17:57:39.868Z,8.00
2023-02-03T18:02:43.063Z,7.90
2023-02-03T18:07:45.156Z,7.90
2023-02-03T18:12:46.931Z,7.80
2023-02-03T18:17:48.677Z,7.90
2023-02-03T18:22:50.484Z,7.80
2023-02-03T18:27:52.494Z,7.80
2023-02-03T18:32:54.451Z,7.90
2023-02-03T18:37:56.358Z,7.90
2023-02-03T18:42:58.735Z,8.00
2023-02-03T18:48:00.945Z,7.90
2023-02-03T18:53:02.701Z,7.90
2023-02-03T18:58:04.928Z,7.90
2023-02-03T19:03:07.907Z,7.90
2023-02-03T19:08:09.739Z,7.90
2023-02-03T19:13:11.766Z,7.80
2023-02-03T19:18:15.349Z,7.90
2023-02-03T19:23:17.095Z,7.70
2023-02-03T19:28:29.911Z,7.70
2023-02-03T19:33:32.432Z,7.60
2023-02-03T19:38:34.852Z,7.60
2023-02-03T19:43:37.671Z,7.50
2023-02-03T19:48:39.744Z,7.50
2023-02-03T19:53:41.799Z,7.60
2023-02-03T19:58:45.885Z,7.60
2023-02-03T20:03:47.787Z,7.60
2023-02-03T20:08:49.621Z,7.60
2023-02-03T20:13:51.877Z,7.70
2023-02-03T20:18:53.629Z,7.60
2023-02-03T20:23:55.902Z,7.60
2023-02-03T20:28:57.665Z,7.50
2023-02-03T20:33:59.468Z,7.50
2023-02-03T20:39:01.207Z,7.50
2023-02-03T20:44:03.197Z,7.50
2023-02-03T20:49:05.919Z,7.50
2023-02-03T20:54:25.613Z,7.50
2023-02-03T20:59:27.875Z,7.50
2023-02-03T21:04:48.100Z,7.50
2023-02-03T21:09:51.930Z,7.50
2023-02-03T21:14:55.094Z,7.40
2023-02-03T21:19:56.953Z,7.40
2023-02-03T21:25:00.587Z,7.40
2023-02-03T21:30:22.911Z,7.40
2023-02-03T21:35:31.211Z,7.30
2023-02-03T21:40:34.551Z,7.30
2023-02-03T21:45:42.857Z,7.30
2023-02-03T21:50:44.709Z,7.20
2023-02-03T21:55:46.497Z,7.20
2023-02-03T22:00:50.239Z,7.20
2023-02-03T22:05:55.929Z,7.20
2023-02-03T22:10:57.891Z,7.20
2023-02-03T22:15:59.726Z,7.20
2023-02-03T22:21:03.260Z,7.20
2023-02-03T22:26:05.397Z,7.10
2023-02-03T22:31:08.927Z,7.10
2023-02-03T22:36:11.075Z,7.10
2023-02-03T22:41:13.244Z,7.20
2023-02-03T22:46:15.181Z,7.10
2023-02-03T22:51:16.986Z,7.00
2023-02-03T22:56:18.750Z,7.00
2023-02-03T23:01:20.522Z,6.90
2023-02-03T23:06:22.265Z,7.00
2023-02-03T23:11:24.228Z,7.00
2023-02-03T23:16:26.062Z,6.90
2023-02-03T23:21:27.945Z,6.90
2023-02-03T23:26:29.750Z,6.80
2023-02-03T23:31:31.769Z,6.80
2023-02-03T23:36:33.723Z,6.70
2023-02-03T23:41:35.489Z,6.70
2023-02-03T23:46:37.444Z,6.60
2023-02-03T23:51:39.356Z,5.30
2023-02-03T23:56:41.449Z,3.90
